Startpagina
METAR-TAF:

METAR-TAF

Vliegvelden :

Ndjamena, Tsjaad

breedte: 12-08N, lengte: 015-02E, hoogte: 295 m

Actueel weer

Dit bericht is 2 uur en het 7 minuten geleden gemaakt, om 01:00 UTC
Wind 6 kt uit het zuidwesten
Temperatuur 25°C
Vochtigheid 94%
Druk 1009 hPa
Zicht 10 km of meer
Weinig wolken op 2600 ft

METAR: FTTJ 240100Z 23006KT 9999 FEW026 25/24 Q1009 NOSIG

Tijdstip: 04:07 (03:07 UTC)

Verwachting

Dit bericht is 3 uur en het 55 minuten geleden gemaakt, om 23:12 UTC
Verwachting geldig van 24 om 00 UTC tot 25 om 06 UTC
Wind 6 kt uit het westzuidwesten
Zicht 10 km of meer
Verspreide wolken op 2600 ft
Kans 30% :
Tijdelijke
van 24 om 15 UTC tot 24 om 22 UTC
onweer

TAF: FTTJ 232312Z 2400/2506 24006KT 9999 SCT026 PROB30 TEMPO 2415/2422 TS

Waarnemingen en weersverwachtingen van meer dan 4000 vliegvelden (METAR en TAF).

De beschikbare stations zijn de gele en rode punten op de kaart.

Ga met uw muis naar het station om de naam te zien.

Klik dan om waarnemingen en weersverwachtingen te zien.

kaart wijzigen: klik op de groene knoppen met een zwart kruis om in te zoomen, op de groene knop met een streepje om uit te zoomen of op de groene pijlen voor aangrenzende kaarten.


METAR-TAF: